Top Controllers this Month

Todd Blanchette 1386032
03:40

Dave LaPlace 861872
03:15

Nathan Dean 1366416
02:56

Ryland Kruk 1186526
02:46

Tony Koch 1106668
01:21

  Online Controllers

No controllers online.

  View Our Airspace

  Weather

CYYC - Calgary International Airport   MVFR
CYYC 020100Z 15014KT 5SM FU SKC 32/08 A3009 RMK FU6 SLP171 DENSITY ALT 6200FT

CYEG - Edmonton International Airport   MVFR
CYEG 020100Z 01005KT 5SM FU OVC250 25/21 A3007 RMK FU2CI6 SLP186 DENSITY ALT 3900FT

CYXY - Whitehorse / Erik Nielsen International Airport   VFR
CYXY 020100Z VRB03KT 40SM FEW060 FEW240 29/04 A3004 RMK CU1CI1 CI TR SLP180 DENSITY ALT 4300FT

CYZF - Yellowknife International Airport   VFR
CYZF 020100Z 18008KT 15SM FEW240 30/10 A3003 RMK CI1 CI TR SLP173 DENSITY ALT 2400FT

CYMM - Fort McMurray Airport   VFR
CYMM 020100Z AUTO 33005KT 290V350 9SM CLR 32/15 A3004 RMK SLP175 DENSITY ALT 3300FT

CYQF - Red Deer Regional Airport   VFR
CYQF 020100Z AUTO 01007KT 8SM BKN230 26/19 A3008 RMK SLP185 DENSITY ALT 4700FT

CZVL - Edmonton / Villeneuve Airport   VFR
CZVL 020100Z AUTO 33004KT 9SM CLR 26/19 A3007 RMK SLP182 DENSITY ALT 3900FT

CYBW - Calgary / Springbank Airport   VFR
CYBW 020100Z AUTO 14008KT 9SM CLR 30/10 A3011 RMK SLP185 DENSITY ALT 6300FT

CYOD - CFB Cold Lake   VFR
CYOD 020100Z 18003KT 6SM FU SCT160 BKN240 29/14 A3008 RMK FU1AC3CI3 DA3961FT SLP182